createdAt,value
2023-04-23T00:02:03.860Z,88.04
2023-04-23T00:04:33.880Z,88.59
2023-04-23T00:07:03.961Z,89.20
2023-04-23T00:09:32.776Z,89.35
2023-04-23T00:12:03.196Z,88.37
2023-04-23T00:14:31.635Z,88.17
2023-04-23T00:16:59.924Z,88.67
2023-04-23T00:19:27.953Z,89.37
2023-04-23T00:21:56.208Z,91.04
2023-04-23T00:24:24.380Z,91.54
2023-04-23T00:26:52.959Z,91.96
2023-04-23T00:29:22.256Z,92.31
2023-04-23T00:31:50.645Z,92.50
2023-04-23T00:34:18.810Z,93.15
2023-04-23T00:36:47.176Z,93.47
2023-04-23T00:39:15.463Z,93.42
2023-04-23T00:41:44.338Z,92.77
2023-04-23T00:44:13.068Z,92.36
2023-04-23T00:46:43.167Z,91.93
2023-04-23T00:49:11.195Z,91.90
2023-04-23T00:51:39.442Z,91.77
2023-04-23T00:54:07.636Z,92.92
2023-04-23T00:56:36.175Z,93.49
2023-04-23T00:59:04.812Z,92.94
2023-04-23T01:01:33.628Z,93.01
2023-04-23T01:04:03.277Z,92.76
2023-04-23T01:06:31.796Z,92.75
2023-04-23T01:09:00.474Z,93.00
2023-04-23T01:11:28.718Z,92.44
2023-04-23T01:13:56.811Z,92.97
2023-04-23T01:16:25.100Z,92.18
2023-04-23T01:18:53.675Z,93.22
2023-04-23T01:21:23.648Z,92.38
2023-04-23T01:23:53.430Z,93.09
2023-04-23T01:26:23.583Z,92.97
2023-04-23T01:28:51.729Z,93.74
2023-04-23T01:31:20.748Z,94.12
2023-04-23T01:33:49.145Z,94.80
2023-04-23T01:36:17.619Z,94.77
2023-04-23T01:38:45.996Z,96.24
2023-04-23T01:41:15.583Z,94.61
2023-04-23T01:43:43.713Z,94.41
2023-04-23T01:46:12.256Z,94.80
2023-04-23T01:48:40.332Z,95.04
2023-04-23T01:51:08.958Z,94.75
2023-04-23T01:53:36.914Z,94.59
2023-04-23T01:56:06.552Z,95.61
2023-04-23T01:58:36.230Z,96.95
2023-04-23T02:01:04.506Z,97.33
2023-04-23T02:03:34.007Z,98.73
2023-04-23T02:06:04.869Z,97.10
2023-04-23T02:08:32.997Z,96.62
2023-04-23T02:11:01.258Z,96.56
2023-04-23T02:13:29.236Z,97.31
2023-04-23T02:15:59.185Z,98.25
2023-04-23T02:18:27.325Z,98.31
2023-04-23T02:20:56.370Z,97.62
2023-04-23T02:23:24.476Z,97.39
2023-04-23T02:25:53.117Z,97.11
2023-04-23T02:28:21.123Z,96.45
2023-04-23T02:30:49.401Z,96.27
2023-04-23T02:33:19.675Z,96.04
2023-04-23T02:35:47.914Z,95.69
2023-04-23T02:38:15.996Z,96.45
2023-04-23T02:40:44.490Z,95.76
2023-04-23T02:43:12.487Z,95.79
2023-04-23T02:45:40.781Z,95.81
2023-04-23T02:48:08.728Z,96.99
2023-04-23T02:50:39.068Z,96.97
2023-04-23T02:53:07.077Z,96.93
2023-04-23T02:55:35.446Z,96.78
2023-04-23T02:58:03.497Z,96.61
2023-04-23T03:00:33.482Z,96.23
2023-04-23T03:03:01.594Z,96.81
2023-04-23T03:05:30.208Z,97.01
2023-04-23T03:07:59.579Z,97.18
2023-04-23T03:10:27.892Z,98.66
2023-04-23T03:12:56.437Z,98.22
2023-04-23T03:15:25.261Z,97.92
2023-04-23T03:17:54.024Z,97.88
2023-04-23T03:20:22.611Z,97.30
2023-04-23T03:22:50.666Z,97.57
2023-04-23T03:25:22.379Z,96.76
2023-04-23T03:27:50.584Z,97.07
2023-04-23T03:30:19.111Z,97.38
2023-04-23T03:32:47.188Z,96.82
2023-04-23T03:35:15.559Z,97.07
2023-04-23T03:37:47.299Z,96.52
2023-04-23T03:40:15.978Z,96.17
2023-04-23T03:42:48.721Z,96.64
2023-04-23T03:45:20.079Z,95.81
2023-04-23T03:47:48.249Z,96.05
2023-04-23T03:50:17.442Z,95.32
2023-04-23T03:52:47.598Z,95.24
2023-04-23T03:55:26.022Z,95.26
2023-04-23T03:57:55.759Z,96.23
2023-04-23T04:00:26.020Z,96.91
2023-04-23T04:02:54.236Z,96.14
2023-04-23T04:05:24.680Z,95.79
2023-04-23T04:07:56.266Z,95.27
2023-04-23T04:10:26.745Z,94.42
2023-04-23T04:12:56.162Z,94.50
2023-04-23T04:15:24.971Z,94.61
2023-04-23T04:17:52.950Z,94.49
2023-04-23T04:20:21.556Z,94.04
2023-04-23T04:22:49.552Z,94.71
2023-04-23T04:25:17.763Z,94.08
2023-04-23T04:27:45.812Z,93.98
2023-04-23T04:30:15.806Z,94.04
2023-04-23T04:32:45.479Z,93.59
2023-04-23T04:35:14.405Z,93.46
2023-04-23T04:37:43.906Z,93.07
2023-04-23T04:40:13.254Z,92.80
2023-04-23T04:42:41.258Z,92.35
2023-04-23T04:45:10.434Z,92.10
2023-04-23T04:47:39.838Z,92.12
2023-04-23T04:50:08.952Z,91.92
2023-04-23T04:52:37.103Z,91.76
2023-04-23T04:55:06.687Z,91.45
2023-04-23T04:57:34.633Z,91.54
2023-04-23T05:00:05.080Z,91.06
2023-04-23T05:02:33.323Z,91.21
2023-04-23T05:05:03.685Z,91.81
2023-04-23T05:07:31.760Z,91.67
2023-04-23T05:10:00.074Z,91.72
2023-04-23T05:12:28.169Z,91.84
2023-04-23T05:14:56.512Z,91.90
2023-04-23T05:17:24.602Z,92.94
2023-04-23T05:19:52.861Z,93.14
2023-04-23T05:22:22.769Z,92.98
2023-04-23T05:24:51.077Z,92.77
2023-04-23T05:27:19.547Z,91.90
2023-04-23T05:29:47.879Z,92.26
2023-04-23T05:32:16.300Z,91.84
2023-04-23T05:34:44.693Z,92.16
2023-04-23T05:37:12.739Z,91.79
2023-04-23T05:39:44.356Z,92.06
2023-04-23T05:42:13.240Z,91.97
2023-04-23T05:44:42.517Z,92.18
2023-04-23T05:47:11.291Z,92.08
2023-04-23T05:49:39.568Z,91.61
2023-04-23T05:52:07.575Z,91.36
2023-04-23T05:54:35.824Z,91.66
2023-04-23T05:57:05.624Z,91.31
2023-04-23T05:59:34.872Z,91.61
2023-04-23T06:02:03.168Z,91.07
2023-04-23T06:04:31.808Z,91.55
2023-04-23T06:06:59.990Z,92.03
2023-04-23T06:09:28.233Z,92.63
2023-04-23T06:11:56.366Z,92.96
2023-04-23T06:14:25.958Z,93.28
2023-04-23T06:16:53.971Z,93.94
2023-04-23T06:19:24.975Z,94.99
2023-04-23T06:21:53.161Z,93.96
2023-04-23T06:24:21.488Z,93.51
2023-04-23T06:26:49.554Z,93.85
2023-04-23T06:29:20.670Z,93.74
2023-04-23T06:31:56.211Z,93.15
2023-04-23T06:34:24.669Z,94.97
2023-04-23T06:36:52.711Z,95.56
2023-04-23T06:39:20.993Z,96.24
2023-04-23T06:41:49.020Z,96.10
2023-04-23T06:44:43.838Z,94.90
2023-04-23T06:47:13.633Z,94.42
2023-04-23T06:49:41.977Z,94.51
2023-04-23T06:52:10.034Z,94.36
2023-04-23T06:54:38.336Z,94.37
2023-04-23T06:57:06.464Z,93.27
2023-04-23T06:59:34.760Z,90.84
2023-04-23T07:02:02.948Z,88.71
2023-04-23T07:04:32.644Z,88.39
2023-04-23T07:07:01.196Z,89.49
2023-04-23T07:09:29.952Z,88.75
2023-04-23T07:11:58.159Z,87.50
2023-04-23T07:14:26.504Z,86.72
2023-04-23T07:16:55.121Z,85.98
2023-04-23T07:19:23.419Z,86.34
2023-04-23T07:21:53.377Z,85.72
2023-04-23T07:24:21.613Z,85.49
2023-04-23T07:26:49.664Z,84.57
2023-04-23T07:29:17.918Z,84.26
2023-04-23T07:31:46.397Z,84.07
2023-04-23T07:34:14.931Z,83.47
2023-04-23T07:36:43.218Z,82.01
2023-04-23T07:39:13.318Z,81.03
2023-04-23T07:41:41.284Z,78.28
2023-04-23T07:44:09.617Z,78.72
2023-04-23T07:46:37.602Z,78.13
2023-04-23T07:49:07.316Z,77.39
2023-04-23T07:51:36.098Z,76.56
2023-04-23T07:54:04.815Z,75.94
2023-04-23T07:56:34.185Z,76.51
2023-04-23T07:59:02.445Z,75.86
2023-04-23T08:01:30.692Z,76.54
2023-04-23T08:04:00.813Z,74.49
2023-04-23T08:06:29.920Z,72.94
2023-04-23T08:08:58.625Z,73.99
2023-04-23T08:11:29.495Z,74.20
2023-04-23T08:13:59.175Z,74.32
2023-04-23T08:16:27.223Z,74.24
2023-04-23T08:19:04.822Z,72.99
2023-04-23T08:21:34.176Z,73.04
2023-04-23T08:24:04.192Z,73.31
2023-04-23T08:26:32.202Z,71.84
2023-04-23T08:29:02.890Z,71.74
2023-04-23T08:31:30.997Z,71.36
2023-04-23T08:33:59.384Z,72.84
2023-04-23T08:36:27.591Z,72.36
2023-04-23T08:38:56.021Z,70.61
2023-04-23T08:41:26.406Z,72.39
2023-04-23T08:44:02.300Z,70.96
2023-04-23T08:46:32.999Z,69.76
2023-04-23T08:49:01.928Z,69.84
2023-04-23T08:51:32.473Z,68.50
2023-04-23T08:54:05.664Z,68.38
2023-04-23T08:56:33.900Z,66.11
2023-04-23T08:59:03.852Z,66.62
2023-04-23T09:01:33.325Z,66.48
2023-04-23T09:04:01.828Z,65.38
2023-04-23T09:06:32.012Z,66.37
2023-04-23T09:09:00.565Z,67.00
2023-04-23T09:11:28.962Z,66.83
2023-04-23T09:13:57.717Z,66.11
2023-04-23T09:16:25.783Z,65.17
2023-04-23T09:18:55.457Z,65.59
2023-04-23T09:21:23.469Z,65.91
2023-04-23T09:23:52.853Z,64.16
2023-04-23T09:26:22.292Z,64.74
2023-04-23T09:28:51.504Z,65.13
2023-04-23T09:31:22.895Z,65.29
2023-04-23T09:33:55.566Z,64.73
2023-04-23T09:36:24.727Z,63.57
2023-04-23T09:38:57.333Z,63.53
2023-04-23T09:41:26.387Z,63.21
2023-04-23T09:43:55.585Z,61.88
2023-04-23T09:46:36.585Z,61.27
2023-04-23T09:49:07.817Z,60.95
2023-04-23T09:51:37.366Z,60.88
2023-04-23T09:54:05.900Z,60.74
2023-04-23T09:56:34.065Z,61.03
2023-04-23T09:59:02.216Z,61.05
2023-04-23T10:01:30.726Z,59.54
2023-04-23T10:03:59.647Z,58.60
2023-04-23T10:06:44.292Z,59.25
2023-04-23T10:09:23.084Z,58.19
2023-04-23T10:11:52.905Z,59.94
2023-04-23T10:14:21.657Z,58.03
2023-04-23T10:16:52.283Z,57.37
2023-04-23T10:19:23.796Z,57.54
2023-04-23T10:22:00.195Z,57.46
2023-04-23T10:24:41.451Z,58.46
2023-04-23T10:27:24.835Z,57.78
2023-04-23T10:29:58.481Z,57.42
2023-04-23T10:32:26.621Z,56.51
2023-04-23T10:34:55.118Z,57.77
2023-04-23T10:37:24.623Z,57.22
2023-04-23T10:39:56.559Z,55.94
2023-04-23T10:42:24.717Z,55.23
2023-04-23T10:45:01.133Z,55.82
2023-04-23T10:47:32.994Z,54.97
2023-04-23T10:50:19.495Z,54.96
2023-04-23T10:52:51.478Z,54.30
2023-04-23T10:55:21.298Z,52.29
2023-04-23T10:58:01.730Z,53.33
2023-04-23T11:00:43.123Z,53.57
2023-04-23T11:03:32.909Z,52.02
2023-04-23T11:06:05.206Z,51.40
2023-04-23T11:08:36.189Z,50.92
2023-04-23T11:11:08.304Z,50.53
2023-04-23T11:13:36.374Z,51.46
2023-04-23T11:16:15.340Z,51.52
2023-04-23T11:19:00.026Z,50.19
2023-04-23T11:21:59.773Z,51.38
2023-04-23T11:24:33.517Z,49.06
2023-04-23T11:27:02.870Z,48.49
2023-04-23T11:29:30.903Z,47.28
2023-04-23T11:32:02.932Z,46.75
2023-04-23T11:34:32.419Z,46.60
2023-04-23T11:37:01.406Z,47.08
2023-04-23T11:39:29.445Z,46.31
2023-04-23T11:42:02.901Z,45.51
2023-04-23T11:44:31.587Z,45.20
2023-04-23T11:47:01.882Z,44.37
2023-04-23T11:49:30.032Z,43.57
2023-04-23T11:52:01.623Z,43.06
2023-04-23T11:54:30.392Z,41.59
2023-04-23T11:57:00.279Z,43.38
2023-04-23T11:59:28.275Z,43.39
2023-04-23T12:01:57.642Z,43.25
2023-04-23T12:04:27.451Z,44.28
2023-04-23T12:06:57.185Z,43.20
2023-04-23T12:09:27.191Z,42.97
2023-04-23T12:11:55.822Z,44.11
2023-04-23T12:14:29.853Z,43.94
2023-04-23T12:16:59.320Z,42.86
2023-04-23T12:19:29.321Z,42.25
2023-04-23T12:21:59.502Z,42.51
2023-04-23T12:24:28.807Z,42.16
2023-04-23T12:27:00.465Z,40.77
2023-04-23T12:29:31.250Z,40.57
2023-04-23T12:32:00.969Z,40.95
2023-04-23T12:34:28.996Z,41.36
2023-04-23T12:36:57.695Z,41.15
2023-04-23T12:39:33.850Z,40.42
2023-04-23T12:42:04.936Z,41.14
2023-04-23T12:44:35.651Z,40.67
2023-04-23T12:47:05.459Z,40.34
2023-04-23T12:49:34.379Z,40.63
2023-04-23T12:52:03.581Z,39.38
2023-04-23T12:54:32.970Z,39.49
2023-04-23T12:57:02.663Z,38.81
2023-04-23T12:59:31.211Z,37.90
2023-04-23T13:02:02.000Z,39.01
2023-04-23T13:04:30.560Z,38.77
2023-04-23T13:06:58.973Z,39.39
2023-04-23T13:09:27.978Z,39.11
2023-04-23T13:11:56.822Z,39.23
2023-04-23T13:14:24.979Z,40.54
2023-04-23T13:16:53.640Z,39.64
2023-04-23T13:19:23.020Z,40.11
2023-04-23T13:21:51.262Z,40.48
2023-04-23T13:24:19.240Z,40.78
2023-04-23T13:26:47.609Z,41.57
2023-04-23T13:29:15.993Z,41.87
2023-04-23T13:31:44.329Z,43.49
2023-04-23T13:34:12.406Z,43.04
2023-04-23T13:36:42.102Z,43.33
2023-04-23T13:39:13.286Z,43.26
2023-04-23T13:41:41.605Z,42.59
2023-04-23T13:44:10.542Z,42.71
2023-04-23T13:46:40.064Z,41.90
2023-04-23T13:49:08.159Z,42.83
2023-04-23T13:51:36.613Z,42.67
2023-04-23T13:54:06.444Z,41.07
2023-04-23T13:56:34.925Z,40.31
2023-04-23T14:01:35.323Z,38.67
2023-04-23T14:04:04.646Z,38.93
2023-04-23T14:06:33.040Z,36.78
2023-04-23T14:09:01.218Z,35.89
2023-04-23T14:11:30.921Z,34.21
2023-04-23T14:14:00.777Z,33.98
2023-04-23T14:16:29.276Z,32.29
2023-04-23T14:18:57.461Z,31.43
2023-04-23T14:21:25.846Z,30.96
2023-04-23T14:23:57.255Z,31.40
2023-04-23T14:26:47.476Z,31.66
2023-04-23T14:29:25.162Z,32.35
2023-04-23T14:31:55.842Z,34.08
2023-04-23T14:34:23.982Z,35.13
2023-04-23T14:36:53.241Z,34.84
2023-04-23T14:39:22.957Z,33.28
2023-04-23T14:41:52.549Z,33.93
2023-04-23T14:44:23.206Z,33.89
2023-04-23T14:46:51.532Z,34.12
2023-04-23T14:49:20.686Z,34.72
2023-04-23T14:51:50.694Z,35.09
2023-04-23T14:54:18.771Z,35.39
2023-04-23T14:56:47.010Z,36.04
2023-04-23T14:59:16.491Z,36.19
2023-04-23T15:01:45.103Z,36.73
2023-04-23T15:04:13.455Z,36.79
2023-04-23T15:06:41.809Z,37.33
2023-04-23T15:09:10.133Z,38.18
2023-04-23T15:11:38.955Z,38.76
2023-04-23T15:14:09.147Z,39.31
2023-04-23T15:19:11.337Z,40.59
2023-04-23T15:21:41.844Z,40.34
2023-04-23T15:24:10.086Z,39.42
2023-04-23T15:26:38.683Z,39.78
2023-04-23T15:29:08.915Z,38.85
2023-04-23T15:31:39.057Z,38.58
2023-04-23T15:34:08.699Z,39.45
2023-04-23T15:36:38.377Z,39.86
2023-04-23T15:39:07.417Z,40.88
2023-04-23T15:41:39.384Z,41.33
2023-04-23T15:44:10.671Z,41.18
2023-04-23T15:46:40.765Z,42.18
2023-04-23T15:49:09.090Z,43.92
2023-04-23T15:51:37.505Z,45.24
2023-04-23T15:54:08.271Z,44.92
2023-04-23T15:56:37.550Z,46.95
2023-04-23T15:59:05.664Z,46.33
2023-04-23T16:01:33.963Z,46.80
2023-04-23T16:06:34.612Z,47.47
2023-04-23T16:09:03.721Z,45.25
2023-04-23T16:11:32.034Z,46.09
2023-04-23T16:14:00.050Z,46.54
2023-04-23T16:16:28.599Z,49.35
2023-04-23T16:18:57.766Z,56.66
2023-04-23T16:21:28.021Z,65.15
2023-04-23T16:23:56.205Z,66.68
2023-04-23T16:26:25.254Z,68.76
2023-04-23T16:29:05.786Z,71.10
2023-04-23T16:31:40.198Z,74.63
2023-04-23T16:34:08.377Z,73.35
2023-04-23T16:36:38.141Z,76.60
2023-04-23T16:39:06.154Z,79.38
2023-04-23T16:41:34.616Z,82.37
2023-04-23T16:44:02.650Z,83.36
2023-04-23T16:46:31.700Z,83.83
2023-04-23T16:49:00.160Z,83.39
2023-04-23T16:51:29.866Z,84.51
2023-04-23T16:53:59.338Z,84.68
2023-04-23T16:56:27.597Z,83.40
2023-04-23T16:58:55.671Z,84.21
2023-04-23T17:01:23.950Z,83.33
2023-04-23T17:03:52.307Z,82.85
2023-04-23T17:06:26.462Z,82.86
2023-04-23T17:08:55.034Z,83.96
2023-04-23T17:11:24.954Z,82.37
2023-04-23T17:13:53.326Z,84.30
2023-04-23T17:16:21.606Z,85.12
2023-04-23T17:18:49.768Z,83.96
2023-04-23T17:21:18.128Z,85.25
2023-04-23T17:23:46.173Z,84.04
2023-04-23T17:26:17.011Z,84.69
2023-04-23T17:28:46.359Z,83.88
2023-04-23T17:31:14.701Z,81.78
2023-04-23T17:33:44.519Z,82.20
2023-04-23T17:36:12.780Z,81.69
2023-04-23T17:38:40.921Z,82.23
2023-04-23T17:41:09.195Z,81.04
2023-04-23T17:43:37.248Z,83.03
2023-04-23T17:46:07.005Z,81.68
2023-04-23T17:48:35.134Z,82.26
2023-04-23T17:51:03.594Z,81.88
2023-04-23T17:53:31.891Z,83.38
2023-04-23T17:56:02.926Z,84.07
2023-04-23T17:58:32.001Z,84.14
2023-04-23T18:01:00.536Z,82.68
2023-04-23T18:03:30.769Z,84.15
2023-04-23T18:05:59.357Z,83.87
2023-04-23T18:08:27.605Z,83.75
2023-04-23T18:10:55.928Z,84.63
2023-04-23T18:13:23.925Z,83.70
2023-04-23T18:15:52.213Z,83.63
2023-04-23T18:18:21.623Z,82.88
2023-04-23T18:20:51.687Z,83.29
2023-04-23T18:23:20.603Z,82.96
2023-04-23T18:25:49.153Z,82.37
2023-04-23T18:28:17.259Z,83.06
2023-04-23T18:30:45.678Z,83.00
2023-04-23T18:33:25.957Z,83.50
2023-04-23T18:35:59.176Z,83.48
2023-04-23T18:38:33.057Z,83.39
2023-04-23T18:41:04.353Z,83.79
2023-04-23T18:43:33.391Z,83.68
2023-04-23T18:46:01.978Z,83.79
2023-04-23T18:48:51.714Z,83.27
2023-04-23T18:51:26.469Z,83.62
2023-04-23T18:53:54.535Z,83.44
2023-04-23T18:56:22.732Z,83.02
2023-04-23T18:58:50.697Z,82.33
2023-04-23T19:01:20.610Z,82.27
2023-04-23T19:03:48.990Z,81.86
2023-04-23T19:06:17.423Z,82.13
2023-04-23T19:08:46.866Z,82.92
2023-04-23T19:11:15.205Z,85.73
2023-04-23T19:13:43.145Z,86.42
2023-04-23T19:16:11.557Z,86.23
2023-04-23T19:18:40.014Z,85.98
2023-04-23T19:21:09.335Z,86.09
2023-04-23T19:23:37.501Z,86.49
2023-04-23T19:26:07.085Z,86.81
2023-04-23T19:28:35.269Z,86.53
2023-04-23T19:31:04.045Z,86.17
2023-04-23T19:33:32.140Z,86.50
2023-04-23T19:36:00.376Z,86.75
2023-04-23T19:38:28.448Z,86.54
2023-04-23T19:40:57.060Z,85.97
2023-04-23T19:43:26.422Z,86.46
2023-04-23T19:45:54.773Z,86.11
2023-04-23T19:48:22.782Z,85.85
2023-04-23T19:50:51.221Z,85.04
2023-04-23T19:53:19.822Z,84.32
2023-04-23T19:55:48.106Z,84.70
2023-04-23T19:58:18.089Z,83.81
2023-04-23T20:00:47.822Z,84.03
2023-04-23T20:03:16.177Z,83.46
2023-04-23T20:05:46.099Z,83.24
2023-04-23T20:08:25.592Z,83.08
2023-04-23T20:10:54.044Z,84.12
2023-04-23T20:13:23.593Z,83.92
2023-04-23T20:15:54.964Z,83.78
2023-04-23T20:18:25.466Z,85.03
2023-04-23T20:20:53.855Z,84.66
2023-04-23T20:23:21.893Z,85.46
2023-04-23T20:25:50.093Z,85.35
2023-04-23T20:28:18.251Z,84.22
2023-04-23T20:30:46.481Z,84.10
2023-04-23T20:33:18.579Z,84.32
2023-04-23T20:35:47.674Z,83.58
2023-04-23T20:38:19.225Z,83.24
2023-04-23T20:40:47.581Z,82.52
2023-04-23T20:43:15.736Z,82.36
2023-04-23T20:45:44.016Z,83.27
2023-04-23T20:48:12.135Z,83.89
2023-04-23T20:50:41.726Z,84.17
2023-04-23T20:53:09.883Z,84.53
2023-04-23T20:55:38.118Z,84.46
2023-04-23T20:58:06.358Z,85.43
2023-04-23T21:00:36.776Z,85.63
2023-04-23T21:03:05.121Z,85.78
2023-04-23T21:05:33.621Z,85.19
2023-04-23T21:08:02.932Z,85.73
2023-04-23T21:10:31.252Z,85.41
2023-04-23T21:12:59.708Z,84.97
2023-04-23T21:15:29.555Z,84.80
2023-04-23T21:17:57.588Z,85.33
2023-04-23T21:20:26.242Z,85.06
2023-04-23T21:22:54.276Z,86.22
2023-04-23T21:25:23.956Z,85.91
2023-04-23T21:27:51.944Z,85.62
2023-04-23T21:30:24.337Z,86.15
2023-04-23T21:32:52.754Z,85.64
2023-04-23T21:35:21.057Z,85.65
2023-04-23T21:37:49.141Z,84.87
2023-04-23T21:40:17.521Z,85.32
2023-04-23T21:42:47.520Z,85.64
2023-04-23T21:45:16.980Z,86.11
2023-04-23T21:47:44.980Z,86.47
2023-04-23T21:50:13.415Z,85.44
2023-04-23T21:52:43.189Z,85.36
2023-04-23T21:55:12.303Z,85.32
2023-04-23T21:57:40.454Z,84.93
2023-04-23T22:00:14.067Z,85.19
2023-04-23T22:02:46.322Z,84.70
2023-04-23T22:05:16.963Z,84.73
2023-04-23T22:07:45.003Z,85.40
2023-04-23T22:10:14.884Z,84.85
2023-04-23T22:12:43.508Z,85.30
2023-04-23T22:15:15.011Z,85.64
2023-04-23T22:17:46.326Z,84.61
2023-04-23T22:20:15.636Z,85.10
2023-04-23T22:22:43.775Z,85.30
2023-04-23T22:25:12.743Z,85.30
2023-04-23T22:27:41.844Z,84.83
2023-04-23T22:30:11.504Z,84.74
2023-04-23T22:32:41.274Z,84.21
2023-04-23T22:35:10.474Z,84.19
2023-04-23T22:37:38.728Z,84.35
2023-04-23T22:40:09.424Z,83.61
2023-04-23T22:42:37.569Z,83.53
2023-04-23T22:45:07.129Z,83.13
2023-04-23T22:47:35.347Z,83.40
2023-04-23T22:50:05.520Z,83.57
2023-04-23T22:52:33.653Z,83.14
2023-04-23T22:55:02.096Z,84.13
2023-04-23T22:57:30.645Z,83.87
2023-04-23T22:59:59.632Z,84.71
2023-04-23T23:02:27.701Z,84.61
2023-04-23T23:04:56.595Z,85.08
2023-04-23T23:07:25.908Z,85.58
2023-04-23T23:09:54.127Z,85.27
2023-04-23T23:12:22.372Z,86.20
2023-04-23T23:14:50.625Z,86.00
2023-04-23T23:17:18.646Z,85.88
2023-04-23T23:19:46.887Z,85.72
2023-04-23T23:22:14.890Z,85.49
2023-04-23T23:24:44.986Z,84.54
2023-04-23T23:27:12.929Z,83.51
2023-04-23T23:29:41.690Z,83.26
2023-04-23T23:32:10.037Z,83.17
2023-04-23T23:34:38.339Z,82.12
2023-04-23T23:37:06.690Z,80.87
2023-04-23T23:39:34.967Z,81.54
2023-04-23T23:42:04.361Z,81.90
2023-04-23T23:44:32.715Z,81.79
2023-04-23T23:47:00.797Z,80.68
2023-04-23T23:49:29.048Z,81.05
2023-04-23T23:51:57.423Z,81.63
2023-04-23T23:54:25.810Z,81.42
2023-04-23T23:56:53.882Z,81.47
2023-04-23T23:59:23.520Z,81.84
